BAW585 ENBR-EGLL
Flight info
| Callsign | BAW585 |
|---|---|
| Flight time | N/A |
| Altitude | 35000 |
| Route | TUXIL DCT ZOL DCT ATNAK/N0450F360 DCT TIPAN DCT WECOW DCT BINBO DCT AKOKO N866 BUKUT P7 BARMI |
| Aircraft | A320/M-SDE3FGHIRWY/LB1 |
Departure
| Time | 2026-05-06 18:42 |
|---|---|
| Airport | Bergen Airport, Flesland (ENBR) |
Arrival
| Time | N/A |
|---|---|
| Airport | London Heathrow Airport (EGLL) |
| Time | Latitude | Longitude | Altitude | Speed | Heading |
|---|---|---|---|---|---|
| 2026-05-06 18:16 | 60.28860 | 5.22569 | 150 ft | 2 kts | 71° |
| 2026-05-06 18:17 | 60.28860 | 5.22570 | 150 ft | 0 kts | 71° |
| 2026-05-06 18:30 | 60.28853 | 5.22528 | 150 ft | 4 kts | 71° |
| 2026-05-06 18:30 | 60.28844 | 5.22477 | 150 ft | 4 kts | 71° |
| 2026-05-06 18:31 | 60.28836 | 5.22430 | 150 ft | 0 kts | 71° |
| 2026-05-06 18:33 | 60.28837 | 5.22433 | 150 ft | 0 kts | 71° |
| 2026-05-06 18:34 | 60.28835 | 5.22421 | 150 ft | 2 kts | 71° |
| 2026-05-06 18:34 | 60.28833 | 5.22409 | 150 ft | 2 kts | 71° |
| 2026-05-06 18:34 | 60.28834 | 5.22417 | 150 ft | 3 kts | 71° |
| 2026-05-06 18:34 | 60.28833 | 5.22412 | 150 ft | 1 kts | 71° |
| 2026-05-06 18:35 | 60.28849 | 5.22418 | 150 ft | 6 kts | 11° |
| 2026-05-06 18:35 | 60.28920 | 5.22401 | 150 ft | 14 kts | 349° |
| 2026-05-06 18:36 | 60.29027 | 5.22362 | 151 ft | 16 kts | 350° |
| 2026-05-06 18:36 | 60.29146 | 5.22323 | 152 ft | 18 kts | 352° |
| 2026-05-06 18:36 | 60.29275 | 5.22284 | 154 ft | 20 kts | 350° |
| 2026-05-06 18:36 | 60.29412 | 5.22232 | 155 ft | 18 kts | 349° |
| 2026-05-06 18:37 | 60.29543 | 5.22185 | 156 ft | 20 kts | 349° |
| 2026-05-06 18:37 | 60.29677 | 5.22145 | 157 ft | 18 kts | 352° |
| 2026-05-06 18:37 | 60.29738 | 5.22021 | 158 ft | 14 kts | 310° |
| 2026-05-06 18:37 | 60.29866 | 5.21959 | 159 ft | 27 kts | 351° |
| 2026-05-06 18:38 | 60.30060 | 5.21899 | 160 ft | 29 kts | 350° |
| 2026-05-06 18:38 | 60.30258 | 5.21828 | 162 ft | 27 kts | 350° |
| 2026-05-06 18:38 | 60.30396 | 5.21782 | 163 ft | 11 kts | 348° |
| 2026-05-06 18:38 | 60.30435 | 5.21740 | 164 ft | 0 kts | 310° |
| 2026-05-06 18:40 | 60.30436 | 5.21738 | 164 ft | 1 kts | 307° |
| 2026-05-06 18:40 | 60.30442 | 5.21684 | 164 ft | 7 kts | 270° |
| 2026-05-06 18:40 | 60.30426 | 5.21572 | 163 ft | 10 kts | 243° |
| 2026-05-06 18:40 | 60.30362 | 5.21479 | 161 ft | 12 kts | 186° |
| 2026-05-06 18:41 | 60.30321 | 5.21487 | 160 ft | 0 kts | 171° |
| 2026-05-06 18:41 | 60.30320 | 5.21487 | 160 ft | 1 kts | 171° |
| 2026-05-06 18:41 | 60.30213 | 5.21526 | 160 ft | 45 kts | 170° |
| 2026-05-06 18:42 | 60.29676 | 5.21705 | 158 ft | 108 kts | 170° |
| 2026-05-06 18:42 | 60.28765 | 5.22005 | 167 ft | 153 kts | 171° |
| 2026-05-06 18:42 | 60.27719 | 5.22343 | 731 ft | 151 kts | 171° |
| 2026-05-06 18:42 | 60.26680 | 5.22687 | 1336 ft | 151 kts | 171° |
| 2026-05-06 18:43 | 60.25629 | 5.23039 | 1752 ft | 161 kts | 171° |
| 2026-05-06 18:43 | 60.24450 | 5.23435 | 2004 ft | 183 kts | 171° |
| 2026-05-06 18:43 | 60.23110 | 5.23886 | 2254 ft | 207 kts | 171° |
| 2026-05-06 18:43 | 60.21607 | 5.24392 | 2607 ft | 231 kts | 171° |
| 2026-05-06 18:44 | 60.19937 | 5.24954 | 3038 ft | 254 kts | 171° |
| 2026-05-06 18:44 | 60.18159 | 5.25554 | 3795 ft | 262 kts | 171° |
| 2026-05-06 18:44 | 60.16344 | 5.26164 | 4679 ft | 266 kts | 171° |
| 2026-05-06 18:44 | 60.14525 | 5.26772 | 5551 ft | 270 kts | 171° |
| 2026-05-06 18:45 | 60.12665 | 5.27392 | 6407 ft | 273 kts | 171° |
| 2026-05-06 18:45 | 60.10776 | 5.28020 | 7248 ft | 277 kts | 171° |
| 2026-05-06 18:45 | 60.08862 | 5.28650 | 8075 ft | 280 kts | 172° |
| 2026-05-06 18:45 | 60.06920 | 5.29214 | 8874 ft | 284 kts | 173° |
| 2026-05-06 18:46 | 60.04951 | 5.29737 | 9653 ft | 287 kts | 173° |
| 2026-05-06 18:46 | 60.02957 | 5.30245 | 10413 ft | 290 kts | 173° |
| 2026-05-06 18:46 | 60.00913 | 5.30762 | 10890 ft | 306 kts | 173° |
| 2026-05-06 18:46 | 59.98722 | 5.31329 | 11074 ft | 329 kts | 173° |
| 2026-05-06 18:47 | 59.96381 | 5.31939 | 11304 ft | 347 kts | 173° |
| 2026-05-06 18:47 | 59.93957 | 5.32579 | 11856 ft | 354 kts | 173° |
| 2026-05-06 18:47 | 59.91497 | 5.33234 | 12481 ft | 357 kts | 173° |
| 2026-05-06 18:47 | 59.89007 | 5.33333 | 13107 ft | 360 kts | 186° |
| 2026-05-06 18:48 | 59.86502 | 5.32849 | 13750 ft | 363 kts | 186° |
| 2026-05-06 18:48 | 59.83969 | 5.32338 | 14373 ft | 367 kts | 186° |
| 2026-05-06 18:48 | 59.81426 | 5.31812 | 14970 ft | 370 kts | 186° |
| 2026-05-06 18:48 | 59.78858 | 5.31278 | 15542 ft | 373 kts | 186° |
| 2026-05-06 18:49 | 59.76267 | 5.30744 | 16083 ft | 376 kts | 186° |